Terminal Aerodrome Forecast
Issued by NWS Sioux Falls, SD

Home | Current Version | Previous Version | Graphics & Text | Print | Product List | Glossary On
Versions: 1 2 3 4 5 6 7 8 9 10 11 12 13 14
000
FTUS43 KFSD 181727
TAFHON
TAF
KHON 181727Z 1818/1918 15004KT P6SM OVC015
     FM181830 12005KT P6SM SKC
     FM190000 18011KT P6SM SCT250
     FM191400 22008KT P6SM SCT150 BKN250
     FM191700 27010KT P6SM SCT250=

USA.gov is the U.S. government's official web portal to all federal, state and local government web resources and services.